sensor_id;sensor_type;location;lat;lon;timestamp;pressure;altitude;pressure_sealevel;temperature;humidity
52797;BME280;38666;43.348;12.584;2023-04-28T08:28:52;96148.81;;;15.43;47.02
52797;BME280;38666;43.348;12.584;2023-04-28T08:31:17;96149.53;;;15.68;43.72
52797;BME280;38666;43.348;12.584;2023-04-28T08:33:43;96152.59;;;15.73;43.53
52797;BME280;38666;43.348;12.584;2023-04-28T08:36:18;96156.19;;;15.70;43.60
52797;BME280;38666;43.348;12.584;2023-04-28T08:38:45;96145.50;;;15.72;37.11
52797;BME280;38666;43.348;12.584;2023-04-28T08:41:12;96149.13;;;16.10;37.43
52797;BME280;38666;43.348;12.584;2023-04-28T08:43:39;96151.75;;;16.17;38.76
52797;BME280;38666;43.348;12.584;2023-04-28T08:46:07;96159.41;;;16.09;39.56
52797;BME280;38666;43.348;12.584;2023-04-28T08:48:39;96163.47;;;16.01;35.74
52797;BME280;38666;43.348;12.584;2023-04-28T08:51:06;96169.19;;;15.90;34.42
52797;BME280;38666;43.348;12.584;2023-04-28T08:53:36;96163.31;;;16.29;35.21
52797;BME280;38666;43.348;12.584;2023-04-28T08:56:04;96168.19;;;16.58;33.36
52797;BME280;38666;43.348;12.584;2023-04-28T08:58:29;96167.97;;;16.69;32.74
52797;BME280;38666;43.348;12.584;2023-04-28T09:00:55;96186.09;;;16.87;32.10
52797;BME280;38666;43.348;12.584;2023-04-28T09:03:21;96167.53;;;16.54;32.03
52797;BME280;38666;43.348;12.584;2023-04-28T09:05:46;96160.16;;;16.84;32.40
52797;BME280;38666;43.348;12.584;2023-04-28T09:08:13;96157.84;;;17.16;32.12
52797;BME280;38666;43.348;12.584;2023-04-28T09:10:39;96154.47;;;16.91;32.84
52797;BME280;38666;43.348;12.584;2023-04-28T09:13:07;96153.88;;;17.17;32.42
52797;BME280;38666;43.348;12.584;2023-04-28T09:15:45;96152.00;;;16.60;33.42
52797;BME280;38666;43.348;12.584;2023-04-28T09:18:13;96148.41;;;16.80;33.62
52797;BME280;38666;43.348;12.584;2023-04-28T09:20:39;96162.91;;;17.01;34.02
52797;BME280;38666;43.348;12.584;2023-04-28T09:23:21;96168.97;;;17.12;33.38
52797;BME280;38666;43.348;12.584;2023-04-28T09:26:03;96163.59;;;17.05;34.02
52797;BME280;38666;43.348;12.584;2023-04-28T09:28:30;96162.56;;;16.99;33.44
52797;BME280;38666;43.348;12.584;2023-04-28T09:30:56;96161.88;;;17.44;33.07
52797;BME280;38666;43.348;12.584;2023-04-28T09:33:22;96166.13;;;17.32;33.67
52797;BME280;38666;43.348;12.584;2023-04-28T09:35:48;96162.06;;;17.37;33.72
52797;BME280;38666;43.348;12.584;2023-04-28T09:38:18;96159.28;;;17.54;34.41
52797;BME280;38666;43.348;12.584;2023-04-28T09:40:51;96148.16;;;17.41;34.46
52797;BME280;38666;43.348;12.584;2023-04-28T09:43:34;96157.78;;;17.49;35.18
52797;BME280;38666;43.348;12.584;2023-04-28T09:46:02;96148.78;;;17.91;34.53
52797;BME280;38666;43.348;12.584;2023-04-28T09:48:35;96162.00;;;18.13;34.04
52797;BME280;38666;43.348;12.584;2023-04-28T09:51:06;96155.56;;;17.74;34.22
52797;BME280;38666;43.348;12.584;2023-04-28T09:53:33;96157.22;;;18.01;33.68
52797;BME280;38666;43.348;12.584;2023-04-28T09:56:01;96154.25;;;18.08;32.96
52797;BME280;38666;43.348;12.584;2023-04-28T09:58:28;96148.31;;;17.80;32.61
52797;BME280;38666;43.348;12.584;2023-04-28T10:00:59;96142.56;;;18.17;31.59
52797;BME280;38666;43.348;12.584;2023-04-28T10:03:27;96133.09;;;18.44;30.61
52797;BME280;38666;43.348;12.584;2023-04-28T10:05:53;96130.31;;;18.70;30.45
52797;BME280;38666;43.348;12.584;2023-04-28T10:08:20;96128.56;;;18.50;30.24
52797;BME280;38666;43.348;12.584;2023-04-28T10:10:48;96139.63;;;18.63;29.53
52797;BME280;38666;43.348;12.584;2023-04-28T10:13:17;96143.28;;;18.60;30.08
52797;BME280;38666;43.348;12.584;2023-04-28T10:15:44;96133.53;;;18.69;30.00
52797;BME280;38666;43.348;12.584;2023-04-28T10:18:11;96124.13;;;18.27;29.98
52797;BME280;38666;43.348;12.584;2023-04-28T10:20:40;96140.38;;;18.38;30.48
52797;BME280;38666;43.348;12.584;2023-04-28T10:25:48;96126.34;;;18.71;30.85
52797;BME280;38666;43.348;12.584;2023-04-28T10:28:15;96119.25;;;18.83;31.26
52797;BME280;38666;43.348;12.584;2023-04-28T10:30:41;96114.19;;;18.82;31.63
52797;BME280;38666;43.348;12.584;2023-04-28T10:38:11;96109.94;;;18.90;30.92
52797;BME280;38666;43.348;12.584;2023-04-28T10:43:08;96109.72;;;18.84;31.62
52797;BME280;38666;43.348;12.584;2023-04-28T10:56:19;96100.00;;;18.67;31.59
52797;BME280;38666;43.348;12.584;2023-04-28T10:58:47;96100.06;;;19.73;30.36
52797;BME280;38666;43.348;12.584;2023-04-28T11:06:26;96100.47;;;20.39;29.23
52797;BME280;38666;43.348;12.584;2023-04-28T11:09:00;96094.72;;;20.01;29.96
52797;BME280;38666;43.348;12.584;2023-04-28T11:11:27;96102.69;;;20.63;27.82
52797;BME280;38666;43.348;12.584;2023-04-28T11:16:55;96090.06;;;19.98;30.00
52797;BME280;38666;43.348;12.584;2023-04-28T11:19:25;96092.91;;;19.40;31.41
52797;BME280;38666;43.348;12.584;2023-04-28T11:21:57;96091.19;;;20.32;30.75
52797;BME280;38666;43.348;12.584;2023-04-28T11:24:24;96086.84;;;19.77;31.04
52797;BME280;38666;43.348;12.584;2023-04-28T11:26:50;96084.28;;;20.05;31.22
52797;BME280;38666;43.348;12.584;2023-04-28T11:29:16;96084.59;;;20.07;30.69
52797;BME280;38666;43.348;12.584;2023-04-28T11:31:50;96080.13;;;19.88;30.35
52797;BME280;38666;43.348;12.584;2023-04-28T11:34:19;96067.56;;;20.60;29.74
52797;BME280;38666;43.348;12.584;2023-04-28T11:36:48;96066.75;;;21.19;28.80
52797;BME280;38666;43.348;12.584;2023-04-28T11:39:13;96064.91;;;21.35;28.25
52797;BME280;38666;43.348;12.584;2023-04-28T11:41:43;96059.66;;;21.46;29.37
52797;BME280;38666;43.348;12.584;2023-04-28T11:44:13;96054.38;;;21.95;27.54
52797;BME280;38666;43.348;12.584;2023-04-28T11:46:48;96048.75;;;22.82;26.66
52797;BME280;38666;43.348;12.584;2023-04-28T11:49:27;96038.69;;;21.45;28.79
52797;BME280;38666;43.348;12.584;2023-04-28T11:51:55;96047.94;;;23.30;26.67
52797;BME280;38666;43.348;12.584;2023-04-28T11:54:24;96048.19;;;23.17;27.29
52797;BME280;38666;43.348;12.584;2023-04-28T11:56:51;96045.13;;;23.55;25.84
52797;BME280;38666;43.348;12.584;2023-04-28T11:59:17;96048.69;;;23.71;25.89
52797;BME280;38666;43.348;12.584;2023-04-28T12:01:55;96051.34;;;24.40;25.36
52797;BME280;38666;43.348;12.584;2023-04-28T12:04:35;96047.44;;;23.87;26.08
52797;BME280;38666;43.348;12.584;2023-04-28T12:07:15;96054.22;;;24.82;26.37
52797;BME280;38666;43.348;12.584;2023-04-28T12:09:46;96051.44;;;25.24;24.97
52797;BME280;38666;43.348;12.584;2023-04-28T12:12:13;96052.25;;;25.51;24.35
52797;BME280;38666;43.348;12.584;2023-04-28T12:15:01;96032.69;;;26.04;23.54
52797;BME280;38666;43.348;12.584;2023-04-28T12:17:44;96027.19;;;27.03;23.46
52797;BME280;38666;43.348;12.584;2023-04-28T12:20:35;96037.28;;;26.84;22.67
52797;BME280;38666;43.348;12.584;2023-04-28T12:23:10;96033.69;;;25.27;24.48
52797;BME280;38666;43.348;12.584;2023-04-28T12:25:53;96035.84;;;25.38;24.45
52797;BME280;38666;43.348;12.584;2023-04-28T12:28:18;96028.84;;;24.65;24.87
52797;BME280;38666;43.348;12.584;2023-04-28T12:30:44;96025.16;;;24.74;24.52
52797;BME280;38666;43.348;12.584;2023-04-28T12:33:27;96017.19;;;24.67;25.46
52797;BME280;38666;43.348;12.584;2023-04-28T12:35:54;96030.13;;;24.13;26.29
52797;BME280;38666;43.348;12.584;2023-04-28T12:38:21;96023.69;;;25.41;24.28
52797;BME280;38666;43.348;12.584;2023-04-28T12:40:49;96023.66;;;25.15;24.12
52797;BME280;38666;43.348;12.584;2023-04-28T12:43:26;96019.19;;;26.79;23.30
52797;BME280;38666;43.348;12.584;2023-04-28T12:46:01;96019.19;;;27.40;22.23
52797;BME280;38666;43.348;12.584;2023-04-28T12:48:28;96012.94;;;27.01;21.43
52797;BME280;38666;43.348;12.584;2023-04-28T12:50:54;95997.19;;;26.22;23.25
52797;BME280;38666;43.348;12.584;2023-04-28T12:53:20;96008.00;;;24.24;25.50
52797;BME280;38666;43.348;12.584;2023-04-28T12:55:45;96018.63;;;26.69;23.97
52797;BME280;38666;43.348;12.584;2023-04-28T12:58:11;96004.22;;;24.84;25.72
52797;BME280;38666;43.348;12.584;2023-04-28T13:00:36;96012.03;;;24.08;27.05
52797;BME280;38666;43.348;12.584;2023-04-28T13:03:02;96000.44;;;23.49;28.07
52797;BME280;38666;43.348;12.584;2023-04-28T13:05:27;96000.13;;;23.92;28.14
52797;BME280;38666;43.348;12.584;2023-04-28T13:07:53;95999.38;;;23.92;28.82
52797;BME280;38666;43.348;12.584;2023-04-28T13:10:18;96005.34;;;23.69;29.73
52797;BME280;38666;43.348;12.584;2023-04-28T13:12:46;95991.50;;;24.41;28.82
52797;BME280;38666;43.348;12.584;2023-04-28T13:15:12;95996.13;;;25.07;27.58
52797;BME280;38666;43.348;12.584;2023-04-28T13:17:37;95994.84;;;25.29;28.15
52797;BME280;38666;43.348;12.584;2023-04-28T13:20:03;95982.78;;;24.34;29.52
52797;BME280;38666;43.348;12.584;2023-04-28T13:22:29;95979.06;;;24.22;29.57
52797;BME280;38666;43.348;12.584;2023-04-28T13:24:54;95991.78;;;25.27;28.76
52797;BME280;38666;43.348;12.584;2023-04-28T13:27:20;95973.50;;;25.26;28.78
52797;BME280;38666;43.348;12.584;2023-04-28T13:45:47;95933.97;;;22.38;36.07
52797;BME280;38666;43.348;12.584;2023-04-28T13:48:19;95936.06;;;22.92;35.74
52797;BME280;38666;43.348;12.584;2023-04-28T13:50:46;95941.53;;;23.72;34.27
52797;BME280;38666;43.348;12.584;2023-04-28T13:56:00;95932.59;;;25.29;32.36
52797;BME280;38666;43.348;12.584;2023-04-28T13:58:27;95923.13;;;27.74;28.14
52797;BME280;38666;43.348;12.584;2023-04-28T14:00:58;95927.41;;;28.04;27.13
52797;BME280;38666;43.348;12.584;2023-04-28T14:03:26;95913.59;;;28.94;26.34
52797;BME280;38666;43.348;12.584;2023-04-28T14:11:15;95921.09;;;29.64;26.23
52797;BME280;38666;43.348;12.584;2023-04-28T14:13:42;95921.75;;;28.38;27.13
52797;BME280;38666;43.348;12.584;2023-04-28T14:16:10;95918.88;;;25.25;30.91
52797;BME280;38666;43.348;12.584;2023-04-28T14:18:36;95912.81;;;24.58;32.22
52797;BME280;38666;43.348;12.584;2023-04-28T14:21:02;95902.97;;;24.89;31.76
52797;BME280;38666;43.348;12.584;2023-04-28T14:23:32;95904.00;;;25.40;31.60
52797;BME280;38666;43.348;12.584;2023-04-28T14:26:00;95890.16;;;28.09;28.33
52797;BME280;38666;43.348;12.584;2023-04-28T14:28:26;95885.34;;;27.69;28.37
52797;BME280;38666;43.348;12.584;2023-04-28T14:30:53;95889.41;;;27.11;30.13
52797;BME280;38666;43.348;12.584;2023-04-28T14:33:22;95884.34;;;27.95;28.22
52797;BME280;38666;43.348;12.584;2023-04-28T14:35:48;95891.53;;;25.08;32.45
52797;BME280;38666;43.348;12.584;2023-04-28T14:38:14;95885.28;;;23.58;35.30
52797;BME280;38666;43.348;12.584;2023-04-28T14:40:43;95882.81;;;25.27;33.76
52797;BME280;38666;43.348;12.584;2023-04-28T14:43:09;95878.97;;;27.06;31.01
52797;BME280;38666;43.348;12.584;2023-04-28T14:45:35;95886.38;;;27.60;30.01
52797;BME280;38666;43.348;12.584;2023-04-28T14:48:02;95907.78;;;27.23;30.57
52797;BME280;38666;43.348;12.584;2023-04-28T14:50:28;95885.06;;;25.23;33.23
52797;BME280;38666;43.348;12.584;2023-04-28T14:52:55;95877.03;;;25.36;33.65
52797;BME280;38666;43.348;12.584;2023-04-28T14:55:21;95881.38;;;26.58;31.91
52797;BME280;38666;43.348;12.584;2023-04-28T14:57:47;95881.19;;;25.47;33.39
52797;BME280;38666;43.348;12.584;2023-04-28T15:00:13;95874.94;;;23.43;37.18
52797;BME280;38666;43.348;12.584;2023-04-28T15:02:39;95865.97;;;22.79;39.21
52797;BME280;38666;43.348;12.584;2023-04-28T15:05:05;95869.22;;;22.62;39.60
52797;BME280;38666;43.348;12.584;2023-04-28T15:07:32;95865.78;;;22.97;39.21
52797;BME280;38666;43.348;12.584;2023-04-28T15:09:58;95878.88;;;23.21;38.50
52797;BME280;38666;43.348;12.584;2023-04-28T15:12:24;95874.78;;;22.62;39.42
52797;BME280;38666;43.348;12.584;2023-04-28T15:14:50;95872.84;;;22.04;40.44
52797;BME280;38666;43.348;12.584;2023-04-28T15:17:18;95874.69;;;21.64;41.88
52797;BME280;38666;43.348;12.584;2023-04-28T15:19:44;95877.88;;;21.47;42.76
52797;BME280;38666;43.348;12.584;2023-04-28T15:22:09;95879.53;;;21.54;42.04
52797;BME280;38666;43.348;12.584;2023-04-28T15:24:35;95874.56;;;21.15;43.33
52797;BME280;38666;43.348;12.584;2023-04-28T15:27:00;95877.81;;;21.13;44.09
52797;BME280;38666;43.348;12.584;2023-04-28T15:29:28;95877.09;;;20.94;44.26
52797;BME280;38666;43.348;12.584;2023-04-28T15:31:56;95876.75;;;20.36;46.01
52797;BME280;38666;43.348;12.584;2023-04-28T15:34:23;95875.38;;;20.40;46.04
52797;BME280;38666;43.348;12.584;2023-04-28T15:36:53;95878.75;;;20.44;46.40
52797;BME280;38666;43.348;12.584;2023-04-28T15:39:20;95876.56;;;20.11;47.05
52797;BME280;38666;43.348;12.584;2023-04-28T15:41:48;95887.50;;;20.15;46.80
52797;BME280;38666;43.348;12.584;2023-04-28T15:44:15;95886.81;;;19.92;47.76
52797;BME280;38666;43.348;12.584;2023-04-28T15:46:42;95886.16;;;19.78;48.66
52797;BME280;38666;43.348;12.584;2023-04-28T15:49:09;95886.25;;;19.65;48.66
52797;BME280;38666;43.348;12.584;2023-04-28T15:51:39;95877.44;;;19.57;49.21
52797;BME280;38666;43.348;12.584;2023-04-28T15:54:06;95875.09;;;19.46;49.36
52797;BME280;38666;43.348;12.584;2023-04-28T15:56:33;95882.41;;;19.63;48.88
52797;BME280;38666;43.348;12.584;2023-04-28T15:58:59;95872.03;;;19.44;49.43
52797;BME280;38666;43.348;12.584;2023-04-28T16:01:26;95879.34;;;19.60;49.06
52797;BME280;38666;43.348;12.584;2023-04-28T16:03:52;95881.09;;;19.45;49.74
52797;BME280;38666;43.348;12.584;2023-04-28T16:06:17;95887.31;;;19.58;49.75
52797;BME280;38666;43.348;12.584;2023-04-28T16:08:43;95886.06;;;19.59;49.65
52797;BME280;38666;43.348;12.584;2023-04-28T16:11:09;95887.19;;;19.62;49.79
52797;BME280;38666;43.348;12.584;2023-04-28T16:13:41;95890.22;;;19.55;50.44
52797;BME280;38666;43.348;12.584;2023-04-28T16:16:07;95884.31;;;19.43;50.61
52797;BME280;38666;43.348;12.584;2023-04-28T16:18:32;95877.53;;;19.35;51.12
52797;BME280;38666;43.348;12.584;2023-04-28T16:20:58;95879.66;;;19.08;52.38
52797;BME280;38666;43.348;12.584;2023-04-28T16:23:23;95874.13;;;19.08;52.81
52797;BME280;38666;43.348;12.584;2023-04-28T16:25:49;95870.09;;;19.00;53.57
52797;BME280;38666;43.348;12.584;2023-04-28T16:28:15;95859.31;;;19.02;53.15
52797;BME280;38666;43.348;12.584;2023-04-28T16:30:42;95863.50;;;18.84;53.75
52797;BME280;38666;43.348;12.584;2023-04-28T16:33:07;95855.47;;;18.77;54.34
52797;BME280;38666;43.348;12.584;2023-04-28T16:35:33;95862.09;;;18.80;54.72
52797;BME280;38666;43.348;12.584;2023-04-28T16:37:58;95864.16;;;18.88;54.66
52797;BME280;38666;43.348;12.584;2023-04-28T16:40:23;95866.81;;;18.70;55.77
52797;BME280;38666;43.348;12.584;2023-04-28T16:42:49;95874.00;;;18.67;56.11
52797;BME280;38666;43.348;12.584;2023-04-28T16:45:14;95868.84;;;18.56;56.86
52797;BME280;38666;43.348;12.584;2023-04-28T16:47:40;95869.38;;;18.64;56.48
52797;BME280;38666;43.348;12.584;2023-04-28T16:50:09;95864.94;;;18.67;56.51
52797;BME280;38666;43.348;12.584;2023-04-28T16:52:34;95865.00;;;18.76;56.54
52797;BME280;38666;43.348;12.584;2023-04-28T16:55:00;95874.69;;;18.58;56.98
52797;BME280;38666;43.348;12.584;2023-04-28T16:57:25;95874.81;;;18.55;57.34
52797;BME280;38666;43.348;12.584;2023-04-28T16:59:51;95871.94;;;18.58;57.09
52797;BME280;38666;43.348;12.584;2023-04-28T17:02:16;95877.84;;;18.47;57.94
52797;BME280;38666;43.348;12.584;2023-04-28T17:04:42;95870.91;;;18.43;57.77
52797;BME280;38666;43.348;12.584;2023-04-28T17:07:07;95881.53;;;18.31;57.69
52797;BME280;38666;43.348;12.584;2023-04-28T17:09:33;95883.66;;;18.27;58.08
52797;BME280;38666;43.348;12.584;2023-04-28T17:11:58;95875.00;;;18.38;57.19
52797;BME280;38666;43.348;12.584;2023-04-28T17:14:24;95869.47;;;18.38;57.39
52797;BME280;38666;43.348;12.584;2023-04-28T17:16:50;95877.47;;;18.23;57.38
52797;BME280;38666;43.348;12.584;2023-04-28T17:19:16;95869.06;;;18.26;57.41
52797;BME280;38666;43.348;12.584;2023-04-28T17:21:41;95867.25;;;18.33;56.43
52797;BME280;38666;43.348;12.584;2023-04-28T17:24:07;95857.66;;;18.37;55.69
52797;BME280;38666;43.348;12.584;2023-04-28T17:26:33;95859.75;;;18.33;56.02
52797;BME280;38666;43.348;12.584;2023-04-28T17:28:58;95851.31;;;18.14;56.48
52797;BME280;38666;43.348;12.584;2023-04-28T17:31:25;95849.75;;;18.00;57.74
52797;BME280;38666;43.348;12.584;2023-04-28T17:33:52;95849.75;;;18.00;57.26
52797;BME280;38666;43.348;12.584;2023-04-28T17:36:19;95860.72;;;17.91;57.63
52797;BME280;38666;43.348;12.584;2023-04-28T17:38:47;95851.09;;;17.96;57.81
52797;BME280;38666;43.348;12.584;2023-04-28T17:41:13;95852.31;;;17.95;57.95
52797;BME280;38666;43.348;12.584;2023-04-28T17:43:39;95848.00;;;17.93;57.90
52797;BME280;38666;43.348;12.584;2023-04-28T17:46:04;95842.28;;;17.75;58.76
52797;BME280;38666;43.348;12.584;2023-04-28T17:48:30;95849.91;;;17.84;59.03
52797;BME280;38666;43.348;12.584;2023-04-28T17:50:55;95845.69;;;17.79;58.84
52797;BME280;38666;43.348;12.584;2023-04-28T17:53:21;95838.97;;;17.80;59.15
52797;BME280;38666;43.348;12.584;2023-04-28T17:55:46;95841.84;;;17.63;59.76
52797;BME280;38666;43.348;12.584;2023-04-28T17:58:12;95837.88;;;17.38;61.05
52797;BME280;38666;43.348;12.584;2023-04-28T18:00:37;95846.81;;;17.29;61.50
52797;BME280;38666;43.348;12.584;2023-04-28T18:03:03;95851.81;;;17.22;62.04
52797;BME280;38666;43.348;12.584;2023-04-28T18:05:28;95851.47;;;17.19;62.38
52797;BME280;38666;43.348;12.584;2023-04-28T18:07:54;95854.31;;;17.16;62.60
52797;BME280;38666;43.348;12.584;2023-04-28T18:10:20;95855.41;;;17.18;62.79
52797;BME280;38666;43.348;12.584;2023-04-28T18:12:46;95848.72;;;17.19;62.78
52797;BME280;38666;43.348;12.584;2023-04-28T18:15:11;95854.22;;;17.19;63.08
52797;BME280;38666;43.348;12.584;2023-04-28T18:17:37;95859.69;;;17.06;63.47
52797;BME280;38666;43.348;12.584;2023-04-28T18:20:03;95851.84;;;17.05;63.62
52797;BME280;38666;43.348;12.584;2023-04-28T18:22:34;95852.75;;;17.02;63.54
52797;BME280;38666;43.348;12.584;2023-04-28T18:24:59;95852.03;;;16.84;64.55
52797;BME280;38666;43.348;12.584;2023-04-28T18:27:25;95847.69;;;16.70;65.35
52797;BME280;38666;43.348;12.584;2023-04-28T18:29:51;95840.84;;;16.62;66.01
52797;BME280;38666;43.348;12.584;2023-04-28T18:32:17;95854.75;;;16.71;65.28
52797;BME280;38666;43.348;12.584;2023-04-28T18:34:42;95861.25;;;16.65;65.89
52797;BME280;38666;43.348;12.584;2023-04-28T18:37:08;95865.75;;;16.58;66.00
52797;BME280;38666;43.348;12.584;2023-04-28T18:39:34;95860.84;;;16.49;66.59
52797;BME280;38666;43.348;12.584;2023-04-28T18:42:00;95865.69;;;16.45;66.68
52797;BME280;38666;43.348;12.584;2023-04-28T18:44:28;95873.63;;;16.43;66.96
52797;BME280;38666;43.348;12.584;2023-04-28T18:46:54;95882.44;;;16.38;67.30
